sensor_id;sensor_type;location;lat;lon;timestamp;P1;durP1;ratioP1;P2;durP2;ratioP2
52396;SDS011;38322;53.108;6.308;2022-09-12T05:02:45;27.77;;;23.23;;
52396;SDS011;38322;53.108;6.308;2022-09-12T05:05:11;28.50;;;22.02;;
52396;SDS011;38322;53.108;6.308;2022-09-12T05:07:36;28.13;;;22.63;;
52396;SDS011;38322;53.108;6.308;2022-09-12T05:10:03;28.70;;;22.75;;
52396;SDS011;38322;53.108;6.308;2022-09-12T05:12:29;32.47;;;23.90;;
52396;SDS011;38322;53.108;6.308;2022-09-12T05:14:56;32.20;;;24.30;;
52396;SDS011;38322;53.108;6.308;2022-09-12T05:17:21;32.05;;;25.13;;
52396;SDS011;38322;53.108;6.308;2022-09-12T05:19:47;29.42;;;22.58;;
52396;SDS011;38322;53.108;6.308;2022-09-12T05:22:13;32.40;;;24.40;;
52396;SDS011;38322;53.108;6.308;2022-09-12T05:24:39;32.88;;;25.70;;
52396;SDS011;38322;53.108;6.308;2022-09-12T05:27:07;29.92;;;24.38;;
52396;SDS011;38322;53.108;6.308;2022-09-12T05:29:34;35.53;;;25.90;;
52396;SDS011;38322;53.108;6.308;2022-09-12T05:32:00;33.00;;;24.60;;
52396;SDS011;38322;53.108;6.308;2022-09-12T05:34:26;34.72;;;25.30;;
52396;SDS011;38322;53.108;6.308;2022-09-12T05:36:52;32.22;;;23.85;;
52396;SDS011;38322;53.108;6.308;2022-09-12T05:39:18;32.13;;;24.23;;
52396;SDS011;38322;53.108;6.308;2022-09-12T05:41:44;30.83;;;23.90;;
52396;SDS011;38322;53.108;6.308;2022-09-12T05:44:11;35.72;;;24.00;;
52396;SDS011;38322;53.108;6.308;2022-09-12T05:46:39;25.00;;;22.25;;
52396;SDS011;38322;53.108;6.308;2022-09-12T05:49:08;25.95;;;20.83;;
52396;SDS011;38322;53.108;6.308;2022-09-12T05:51:36;33.83;;;25.08;;
52396;SDS011;38322;53.108;6.308;2022-09-12T05:54:04;29.63;;;21.80;;
52396;SDS011;38322;53.108;6.308;2022-09-12T05:56:32;32.03;;;24.90;;
52396;SDS011;38322;53.108;6.308;2022-09-12T05:59:04;32.30;;;26.02;;
52396;SDS011;38322;53.108;6.308;2022-09-12T06:01:32;30.98;;;25.27;;
52396;SDS011;38322;53.108;6.308;2022-09-12T06:04:00;30.15;;;24.35;;
52396;SDS011;38322;53.108;6.308;2022-09-12T06:06:29;28.75;;;23.02;;
52396;SDS011;38322;53.108;6.308;2022-09-12T06:08:57;31.63;;;23.77;;
52396;SDS011;38322;53.108;6.308;2022-09-12T06:11:25;33.42;;;23.63;;
52396;SDS011;38322;53.108;6.308;2022-09-12T06:13:53;30.50;;;24.13;;
52396;SDS011;38322;53.108;6.308;2022-09-12T06:16:21;30.00;;;22.92;;
52396;SDS011;38322;53.108;6.308;2022-09-12T06:18:50;31.38;;;23.25;;
52396;SDS011;38322;53.108;6.308;2022-09-12T06:21:19;31.83;;;25.27;;
52396;SDS011;38322;53.108;6.308;2022-09-12T06:23:46;33.30;;;24.90;;
52396;SDS011;38322;53.108;6.308;2022-09-12T06:26:12;33.40;;;26.48;;
52396;SDS011;38322;53.108;6.308;2022-09-12T06:28:41;35.75;;;25.48;;
52396;SDS011;38322;53.108;6.308;2022-09-12T06:31:11;31.20;;;26.20;;
52396;SDS011;38322;53.108;6.308;2022-09-12T06:33:39;33.92;;;25.15;;
52396;SDS011;38322;53.108;6.308;2022-09-12T06:36:07;35.28;;;26.90;;
52396;SDS011;38322;53.108;6.308;2022-09-12T06:38:35;35.75;;;24.80;;
52396;SDS011;38322;53.108;6.308;2022-09-12T06:41:03;35.80;;;26.45;;
52396;SDS011;38322;53.108;6.308;2022-09-12T06:43:30;29.85;;;24.05;;
52396;SDS011;38322;53.108;6.308;2022-09-12T06:45:57;37.42;;;27.83;;
52396;SDS011;38322;53.108;6.308;2022-09-12T06:48:23;41.70;;;27.83;;
52396;SDS011;38322;53.108;6.308;2022-09-12T06:50:54;39.13;;;29.38;;
52396;SDS011;38322;53.108;6.308;2022-09-12T06:53:22;37.70;;;28.15;;
52396;SDS011;38322;53.108;6.308;2022-09-12T06:55:54;43.58;;;29.38;;
52396;SDS011;38322;53.108;6.308;2022-09-12T06:58:28;39.47;;;28.13;;
52396;SDS011;38322;53.108;6.308;2022-09-12T07:01:04;42.53;;;31.08;;
52396;SDS011;38322;53.108;6.308;2022-09-12T07:03:32;43.25;;;30.00;;
52396;SDS011;38322;53.108;6.308;2022-09-12T07:06:07;37.33;;;26.88;;
52396;SDS011;38322;53.108;6.308;2022-09-12T07:08:35;42.17;;;29.48;;
52396;SDS011;38322;53.108;6.308;2022-09-12T07:13:40;42.80;;;31.50;;
52396;SDS011;38322;53.108;6.308;2022-09-12T07:16:08;43.78;;;31.00;;
52396;SDS011;38322;53.108;6.308;2022-09-12T07:18:35;48.92;;;33.80;;
52396;SDS011;38322;53.108;6.308;2022-09-12T07:21:04;48.67;;;32.58;;
52396;SDS011;38322;53.108;6.308;2022-09-12T07:23:32;43.58;;;30.75;;
52396;SDS011;38322;53.108;6.308;2022-09-12T07:25:58;43.40;;;33.05;;
52396;SDS011;38322;53.108;6.308;2022-09-12T07:28:26;39.90;;;30.02;;
52396;SDS011;38322;53.108;6.308;2022-09-12T07:30:54;40.58;;;29.15;;
52396;SDS011;38322;53.108;6.308;2022-09-12T07:33:21;44.78;;;31.88;;
52396;SDS011;38322;53.108;6.308;2022-09-12T07:35:48;45.40;;;31.77;;
52396;SDS011;38322;53.108;6.308;2022-09-12T07:38:15;45.58;;;29.90;;
52396;SDS011;38322;53.108;6.308;2022-09-12T07:40:41;53.90;;;33.28;;
52396;SDS011;38322;53.108;6.308;2022-09-12T07:43:08;41.88;;;31.67;;
52396;SDS011;38322;53.108;6.308;2022-09-12T07:45:34;46.25;;;34.38;;
52396;SDS011;38322;53.108;6.308;2022-09-12T07:47:59;42.95;;;29.70;;
52396;SDS011;38322;53.108;6.308;2022-09-12T07:50:27;45.92;;;33.55;;
52396;SDS011;38322;53.108;6.308;2022-09-12T07:52:53;42.78;;;31.40;;
52396;SDS011;38322;53.108;6.308;2022-09-12T07:55:20;49.08;;;35.00;;
52396;SDS011;38322;53.108;6.308;2022-09-12T07:57:49;45.15;;;33.08;;
52396;SDS011;38322;53.108;6.308;2022-09-12T08:00:16;56.65;;;36.42;;
52396;SDS011;38322;53.108;6.308;2022-09-12T08:02:42;46.28;;;34.20;;
52396;SDS011;38322;53.108;6.308;2022-09-12T08:05:08;53.97;;;37.53;;
52396;SDS011;38322;53.108;6.308;2022-09-12T08:07:35;57.92;;;37.22;;
52396;SDS011;38322;53.108;6.308;2022-09-12T08:10:01;48.17;;;34.92;;
52396;SDS011;38322;53.108;6.308;2022-09-12T08:12:27;45.90;;;32.85;;
52396;SDS011;38322;53.108;6.308;2022-09-12T08:14:53;46.70;;;32.45;;
52396;SDS011;38322;53.108;6.308;2022-09-12T08:17:19;53.80;;;37.15;;
52396;SDS011;38322;53.108;6.308;2022-09-12T08:19:45;51.65;;;34.88;;
52396;SDS011;38322;53.108;6.308;2022-09-12T08:22:12;46.95;;;31.77;;
52396;SDS011;38322;53.108;6.308;2022-09-12T08:24:38;53.15;;;35.33;;
52396;SDS011;38322;53.108;6.308;2022-09-12T08:27:05;50.40;;;34.85;;
52396;SDS011;38322;53.108;6.308;2022-09-12T08:29:31;48.65;;;34.65;;
52396;SDS011;38322;53.108;6.308;2022-09-12T08:31:57;44.53;;;32.53;;
52396;SDS011;38322;53.108;6.308;2022-09-12T08:34:23;54.38;;;37.60;;
52396;SDS011;38322;53.108;6.308;2022-09-12T08:36:50;52.95;;;35.80;;
52396;SDS011;38322;53.108;6.308;2022-09-12T08:39:18;52.45;;;37.85;;
52396;SDS011;38322;53.108;6.308;2022-09-12T08:41:45;50.45;;;33.97;;
52396;SDS011;38322;53.108;6.308;2022-09-12T08:47:07;45.00;;;32.45;;
52396;SDS011;38322;53.108;6.308;2022-09-12T08:49:56;53.75;;;36.30;;
52396;SDS011;38322;53.108;6.308;2022-09-12T08:52:35;52.67;;;36.55;;
52396;SDS011;38322;53.108;6.308;2022-09-12T08:55:15;51.08;;;37.13;;
52396;SDS011;38322;53.108;6.308;2022-09-12T08:57:59;51.28;;;38.60;;
52396;SDS011;38322;53.108;6.308;2022-09-12T09:00:39;54.72;;;39.42;;
52396;SDS011;38322;53.108;6.308;2022-09-12T09:06:20;55.15;;;42.35;;
52396;SDS011;38322;53.108;6.308;2022-09-12T09:15:16;57.25;;;42.42;;
52396;SDS011;38322;53.108;6.308;2022-09-12T09:17:52;57.78;;;42.75;;
52396;SDS011;38322;53.108;6.308;2022-09-12T09:23:06;52.55;;;39.25;;
52396;SDS011;38322;53.108;6.308;2022-09-12T09:28:20;62.22;;;44.17;;
52396;SDS011;38322;53.108;6.308;2022-09-12T09:30:49;57.88;;;41.03;;
52396;SDS011;38322;53.108;6.308;2022-09-12T09:33:18;61.03;;;41.30;;
52396;SDS011;38322;53.108;6.308;2022-09-12T09:35:48;61.92;;;42.55;;
52396;SDS011;38322;53.108;6.308;2022-09-12T09:38:28;60.95;;;39.70;;
52396;SDS011;38322;53.108;6.308;2022-09-12T09:43:55;64.68;;;42.50;;
52396;SDS011;38322;53.108;6.308;2022-09-12T09:46:21;56.78;;;37.75;;
52396;SDS011;38322;53.108;6.308;2022-09-12T09:48:48;59.03;;;40.75;;
52396;SDS011;38322;53.108;6.308;2022-09-12T09:51:16;54.67;;;39.30;;
52396;SDS011;38322;53.108;6.308;2022-09-12T09:53:52;55.47;;;39.33;;
52396;SDS011;38322;53.108;6.308;2022-09-12T09:56:35;54.60;;;39.38;;
52396;SDS011;38322;53.108;6.308;2022-09-12T09:59:17;55.42;;;38.53;;
52396;SDS011;38322;53.108;6.308;2022-09-12T10:01:52;50.67;;;33.72;;
52396;SDS011;38322;53.108;6.308;2022-09-12T10:04:24;45.27;;;32.93;;
52396;SDS011;38322;53.108;6.308;2022-09-12T10:06:55;48.53;;;33.75;;
52396;SDS011;38322;53.108;6.308;2022-09-12T10:09:25;51.20;;;32.97;;
52396;SDS011;38322;53.108;6.308;2022-09-12T10:11:53;46.22;;;30.75;;
52396;SDS011;38322;53.108;6.308;2022-09-12T10:14:31;42.00;;;29.75;;
52396;SDS011;38322;53.108;6.308;2022-09-12T10:17:00;38.80;;;26.88;;
52396;SDS011;38322;53.108;6.308;2022-09-12T10:19:33;35.97;;;22.73;;
52396;SDS011;38322;53.108;6.308;2022-09-12T10:22:02;34.63;;;24.13;;
52396;SDS011;38322;53.108;6.308;2022-09-12T10:28:01;32.67;;;23.65;;
52396;SDS011;38322;53.108;6.308;2022-09-12T10:34:27;35.90;;;24.25;;
52396;SDS011;38322;53.108;6.308;2022-09-12T10:39:49;36.88;;;23.63;;
52396;SDS011;38322;53.108;6.308;2022-09-12T10:49:25;21.10;;;16.40;;
52396;SDS011;38322;53.108;6.308;2022-09-12T11:07:57;17.77;;;13.90;;
52396;SDS011;38322;53.108;6.308;2022-09-12T11:10:42;22.35;;;16.85;;
52396;SDS011;38322;53.108;6.308;2022-09-12T11:16:40;16.83;;;13.18;;
52396;SDS011;38322;53.108;6.308;2022-09-12T11:29:51;19.23;;;14.23;;
52396;SDS011;38322;53.108;6.308;2022-09-12T11:42:36;16.83;;;13.70;;
52396;SDS011;38322;53.108;6.308;2022-09-12T11:45:27;19.52;;;13.23;;
52396;SDS011;38322;53.108;6.308;2022-09-12T11:52:19;14.48;;;11.55;;
52396;SDS011;38322;53.108;6.308;2022-09-12T11:55:00;17.48;;;11.10;;
52396;SDS011;38322;53.108;6.308;2022-09-12T11:57:36;16.10;;;11.68;;
52396;SDS011;38322;53.108;6.308;2022-09-12T12:00:19;18.05;;;12.15;;
52396;SDS011;38322;53.108;6.308;2022-09-12T12:05:36;18.73;;;12.65;;
52396;SDS011;38322;53.108;6.308;2022-09-12T12:08:09;14.52;;;11.68;;
52396;SDS011;38322;53.108;6.308;2022-09-12T12:10:38;14.07;;;11.82;;
52396;SDS011;38322;53.108;6.308;2022-09-12T12:13:18;18.63;;;13.55;;
52396;SDS011;38322;53.108;6.308;2022-09-12T12:15:47;16.13;;;11.95;;
52396;SDS011;38322;53.108;6.308;2022-09-12T12:18:25;15.18;;;11.75;;
52396;SDS011;38322;53.108;6.308;2022-09-12T12:20:53;11.30;;;9.27;;
52396;SDS011;38322;53.108;6.308;2022-09-12T12:23:25;12.23;;;8.60;;
52396;SDS011;38322;53.108;6.308;2022-09-12T12:25:54;14.55;;;9.30;;
52396;SDS011;38322;53.108;6.308;2022-09-12T12:31:07;13.98;;;8.45;;
52396;SDS011;38322;53.108;6.308;2022-09-12T12:36:04;13.02;;;8.85;;
52396;SDS011;38322;53.108;6.308;2022-09-12T12:46:11;15.23;;;11.10;;
52396;SDS011;38322;53.108;6.308;2022-09-12T12:48:43;13.18;;;10.32;;
52396;SDS011;38322;53.108;6.308;2022-09-12T12:51:14;14.20;;;10.90;;
52396;SDS011;38322;53.108;6.308;2022-09-12T12:54:02;13.63;;;9.43;;
52396;SDS011;38322;53.108;6.308;2022-09-12T12:56:34;12.60;;;10.13;;
52396;SDS011;38322;53.108;6.308;2022-09-12T12:59:12;15.07;;;12.02;;
52396;SDS011;38322;53.108;6.308;2022-09-12T13:01:43;12.90;;;10.80;;
52396;SDS011;38322;53.108;6.308;2022-09-12T13:04:13;11.95;;;9.65;;
52396;SDS011;38322;53.108;6.308;2022-09-12T13:06:43;13.02;;;10.32;;
52396;SDS011;38322;53.108;6.308;2022-09-12T13:11:38;16.35;;;11.65;;
52396;SDS011;38322;53.108;6.308;2022-09-12T13:14:06;15.02;;;11.07;;
52396;SDS011;38322;53.108;6.308;2022-09-12T13:16:53;13.48;;;11.13;;
52396;SDS011;38322;53.108;6.308;2022-09-12T13:19:26;12.95;;;9.55;;
52396;SDS011;38322;53.108;6.308;2022-09-12T13:21:56;12.70;;;8.77;;
52396;SDS011;38322;53.108;6.308;2022-09-12T13:24:25;12.32;;;9.00;;
52396;SDS011;38322;53.108;6.308;2022-09-12T13:26:51;12.40;;;8.88;;
52396;SDS011;38322;53.108;6.308;2022-09-12T13:29:18;13.15;;;9.55;;
52396;SDS011;38322;53.108;6.308;2022-09-12T13:31:48;13.07;;;10.05;;
52396;SDS011;38322;53.108;6.308;2022-09-12T13:34:19;14.20;;;9.73;;
52396;SDS011;38322;53.108;6.308;2022-09-12T13:39:31;12.63;;;9.70;;
52396;SDS011;38322;53.108;6.308;2022-09-12T13:42:19;8.75;;;7.85;;
52396;SDS011;38322;53.108;6.308;2022-09-12T13:45:02;9.13;;;7.50;;
52396;SDS011;38322;53.108;6.308;2022-09-12T13:47:31;10.15;;;7.93;;
52396;SDS011;38322;53.108;6.308;2022-09-12T13:50:02;10.85;;;8.27;;
52396;SDS011;38322;53.108;6.308;2022-09-12T13:52:31;10.65;;;8.10;;
52396;SDS011;38322;53.108;6.308;2022-09-12T13:54:59;11.52;;;7.82;;
52396;SDS011;38322;53.108;6.308;2022-09-12T13:57:32;11.20;;;7.97;;
52396;SDS011;38322;53.108;6.308;2022-09-12T13:59:58;10.90;;;6.25;;
52396;SDS011;38322;53.108;6.308;2022-09-12T14:02:28;6.20;;;5.60;;
52396;SDS011;38322;53.108;6.308;2022-09-12T14:04:55;7.68;;;5.05;;
52396;SDS011;38322;53.108;6.308;2022-09-12T14:07:36;7.07;;;5.35;;
52396;SDS011;38322;53.108;6.308;2022-09-12T14:10:31;6.85;;;5.53;;
52396;SDS011;38322;53.108;6.308;2022-09-12T14:13:00;5.85;;;5.25;;
52396;SDS011;38322;53.108;6.308;2022-09-12T14:15:30;5.13;;;4.63;;
52396;SDS011;38322;53.108;6.308;2022-09-12T14:17:59;5.32;;;4.10;;
52396;SDS011;38322;53.108;6.308;2022-09-12T14:20:27;4.15;;;3.58;;
52396;SDS011;38322;53.108;6.308;2022-09-12T14:23:02;6.13;;;3.95;;
52396;SDS011;38322;53.108;6.308;2022-09-12T14:25:35;5.25;;;4.75;;
52396;SDS011;38322;53.108;6.308;2022-09-12T14:28:05;4.38;;;3.88;;
52396;SDS011;38322;53.108;6.308;2022-09-12T14:30:37;5.60;;;3.88;;
52396;SDS011;38322;53.108;6.308;2022-09-12T14:38:08;4.05;;;3.30;;
52396;SDS011;38322;53.108;6.308;2022-09-12T14:40:39;4.90;;;4.22;;
52396;SDS011;38322;53.108;6.308;2022-09-12T14:43:16;4.05;;;3.58;;
52396;SDS011;38322;53.108;6.308;2022-09-12T14:48:17;3.80;;;3.45;;
52396;SDS011;38322;53.108;6.308;2022-09-12T14:50:47;7.65;;;4.40;;
52396;SDS011;38322;53.108;6.308;2022-09-12T14:55:43;5.88;;;3.83;;
52396;SDS011;38322;53.108;6.308;2022-09-12T14:58:15;4.53;;;3.92;;
52396;SDS011;38322;53.108;6.308;2022-09-12T15:00:51;4.07;;;3.45;;
52396;SDS011;38322;53.108;6.308;2022-09-12T15:03:26;5.47;;;4.20;;
52396;SDS011;38322;53.108;6.308;2022-09-12T15:05:54;6.13;;;3.33;;
52396;SDS011;38322;53.108;6.308;2022-09-12T15:08:20;4.55;;;3.83;;
52396;SDS011;38322;53.108;6.308;2022-09-12T15:10:46;4.35;;;3.60;;
52396;SDS011;38322;53.108;6.308;2022-09-12T15:13:13;4.95;;;3.42;;
52396;SDS011;38322;53.108;6.308;2022-09-12T15:15:44;4.40;;;3.85;;
52396;SDS011;38322;53.108;6.308;2022-09-12T15:18:13;7.13;;;5.32;;
52396;SDS011;38322;53.108;6.308;2022-09-12T15:20:39;10.35;;;5.18;;
52396;SDS011;38322;53.108;6.308;2022-09-12T15:23:13;4.63;;;4.22;;
52396;SDS011;38322;53.108;6.308;2022-09-12T15:25:40;5.30;;;4.15;;
52396;SDS011;38322;53.108;6.308;2022-09-12T15:28:12;4.88;;;4.38;;
52396;SDS011;38322;53.108;6.308;2022-09-12T15:30:42;4.53;;;4.13;;
52396;SDS011;38322;53.108;6.308;2022-09-12T15:33:09;6.20;;;4.88;;
52396;SDS011;38322;53.108;6.308;2022-09-12T15:35:36;5.97;;;4.78;;
52396;SDS011;38322;53.108;6.308;2022-09-12T15:38:01;8.45;;;5.53;;
52396;SDS011;38322;53.108;6.308;2022-09-12T15:40:27;9.88;;;5.57;;
52396;SDS011;38322;53.108;6.308;2022-09-12T15:42:53;5.95;;;5.35;;
52396;SDS011;38322;53.108;6.308;2022-09-12T15:45:21;8.13;;;5.18;;
52396;SDS011;38322;53.108;6.308;2022-09-12T15:47:51;6.22;;;5.38;;
52396;SDS011;38322;53.108;6.308;2022-09-12T15:50:17;6.13;;;5.10;;
52396;SDS011;38322;53.108;6.308;2022-09-12T15:52:43;6.13;;;5.30;;
52396;SDS011;38322;53.108;6.308;2022-09-12T15:55:16;7.45;;;5.22;;
52396;SDS011;38322;53.108;6.308;2022-09-12T15:57:44;7.00;;;6.28;;
52396;SDS011;38322;53.108;6.308;2022-09-12T16:00:11;9.68;;;5.40;;
52396;SDS011;38322;53.108;6.308;2022-09-12T16:02:38;7.57;;;5.32;;
52396;SDS011;38322;53.108;6.308;2022-09-12T16:05:04;6.93;;;5.55;;
52396;SDS011;38322;53.108;6.308;2022-09-12T16:07:34;6.93;;;5.15;;
52396;SDS011;38322;53.108;6.308;2022-09-12T16:10:00;4.90;;;4.28;;
52396;SDS011;38322;53.108;6.308;2022-09-12T16:12:26;6.85;;;4.55;;
52396;SDS011;38322;53.108;6.308;2022-09-12T16:14:52;5.95;;;5.35;;
52396;SDS011;38322;53.108;6.308;2022-09-12T16:17:18;5.68;;;5.00;;
52396;SDS011;38322;53.108;6.308;2022-09-12T16:19:44;6.07;;;4.40;;
52396;SDS011;38322;53.108;6.308;2022-09-12T16:22:09;4.95;;;4.53;;
52396;SDS011;38322;53.108;6.308;2022-09-12T16:24:35;4.28;;;3.88;;
52396;SDS011;38322;53.108;6.308;2022-09-12T16:27:01;6.85;;;4.18;;
52396;SDS011;38322;53.108;6.308;2022-09-12T16:29:27;6.82;;;5.35;;
52396;SDS011;38322;53.108;6.308;2022-09-12T16:31:53;4.22;;;3.83;;
52396;SDS011;38322;53.108;6.308;2022-09-12T16:34:19;5.93;;;3.80;;
52396;SDS011;38322;53.108;6.308;2022-09-12T16:36:45;5.85;;;3.85;;
52396;SDS011;38322;53.108;6.308;2022-09-12T16:39:11;5.18;;;4.68;;
52396;SDS011;38322;53.108;6.308;2022-09-12T16:41:37;5.38;;;3.70;;
52396;SDS011;38322;53.108;6.308;2022-09-12T16:44:06;4.53;;;4.18;;
52396;SDS011;38322;53.108;6.308;2022-09-12T16:46:32;5.90;;;3.83;;
52396;SDS011;38322;53.108;6.308;2022-09-12T16:48:58;5.40;;;4.30;;
52396;SDS011;38322;53.108;6.308;2022-09-12T16:51:26;5.70;;;3.90;;
52396;SDS011;38322;53.108;6.308;2022-09-12T16:53:55;6.97;;;5.28;;
52396;SDS011;38322;53.108;6.308;2022-09-12T16:56:21;5.72;;;4.47;;
52396;SDS011;38322;53.108;6.308;2022-09-12T16:58:47;5.10;;;3.95;;
52396;SDS011;38322;53.108;6.308;2022-09-12T17:01:14;4.07;;;3.50;;
52396;SDS011;38322;53.108;6.308;2022-09-12T17:03:42;4.10;;;3.70;;
52396;SDS011;38322;53.108;6.308;2022-09-12T17:06:10;5.70;;;4.72;;
52396;SDS011;38322;53.108;6.308;2022-09-12T17:08:39;9.05;;;4.70;;
52396;SDS011;38322;53.108;6.308;2022-09-12T17:11:10;4.45;;;4.15;;
52396;SDS011;38322;53.108;6.308;2022-09-12T17:13:38;3.65;;;3.35;;
52396;SDS011;38322;53.108;6.308;2022-09-12T17:16:05;5.18;;;3.38;;
52396;SDS011;38322;53.108;6.308;2022-09-12T17:18:32;5.10;;;3.55;;
52396;SDS011;38322;53.108;6.308;2022-09-12T17:20:58;4.70;;;3.85;;
52396;SDS011;38322;53.108;6.308;2022-09-12T17:23:23;4.22;;;3.83;;
52396;SDS011;38322;53.108;6.308;2022-09-12T17:25:49;4.47;;;4.05;;
52396;SDS011;38322;53.108;6.308;2022-09-12T17:28:16;6.05;;;3.53;;
52396;SDS011;38322;53.108;6.308;2022-09-12T17:30:42;6.97;;;4.72;;
52396;SDS011;38322;53.108;6.308;2022-09-12T17:33:08;5.47;;;4.57;;
52396;SDS011;38322;53.108;6.308;2022-09-12T17:35:35;5.80;;;4.15;;
52396;SDS011;38322;53.108;6.308;2022-09-12T17:38:02;5.95;;;5.40;;
52396;SDS011;38322;53.108;6.308;2022-09-12T17:40:28;6.80;;;4.68;;
52396;SDS011;38322;53.108;6.308;2022-09-12T17:42:55;4.30;;;3.90;;
52396;SDS011;38322;53.108;6.308;2022-09-12T17:45:21;4.70;;;4.30;;
52396;SDS011;38322;53.108;6.308;2022-09-12T17:47:48;4.80;;;4.25;;
52396;SDS011;38322;53.108;6.308;2022-09-12T17:50:14;7.05;;;6.05;;
52396;SDS011;38322;53.108;6.308;2022-09-12T17:52:46;9.27;;;5.20;;
52396;SDS011;38322;53.108;6.308;2022-09-12T17:55:12;6.07;;;5.10;;
52396;SDS011;38322;53.108;6.308;2022-09-12T17:57:39;5.97;;;5.15;;
52396;SDS011;38322;53.108;6.308;2022-09-12T18:00:06;6.68;;;5.85;;
52396;SDS011;38322;53.108;6.308;2022-09-12T18:02:33;7.80;;;5.60;;
52396;SDS011;38322;53.108;6.308;2022-09-12T18:04:59;5.47;;;4.97;;
52396;SDS011;38322;53.108;6.308;2022-09-12T18:07:29;5.50;;;4.68;;
52396;SDS011;38322;53.108;6.308;2022-09-12T18:09:55;5.40;;;4.95;;
52396;SDS011;38322;53.108;6.308;2022-09-12T18:12:22;6.47;;;5.55;;
52396;SDS011;38322;53.108;6.308;2022-09-12T18:14:49;5.70;;;5.10;;
52396;SDS011;38322;53.108;6.308;2022-09-12T18:17:15;6.80;;;5.65;;
52396;SDS011;38322;53.108;6.308;2022-09-12T18:19:41;6.85;;;6.18;;
52396;SDS011;38322;53.108;6.308;2022-09-12T18:22:08;8.27;;;6.43;;
52396;SDS011;38322;53.108;6.308;2022-09-12T18:24:34;8.85;;;7.65;;
52396;SDS011;38322;53.108;6.308;2022-09-12T18:27:00;6.72;;;6.03;;
52396;SDS011;38322;53.108;6.308;2022-09-12T18:29:28;11.25;;;6.15;;
52396;SDS011;38322;53.108;6.308;2022-09-12T18:31:54;6.32;;;4.70;;
52396;SDS011;38322;53.108;6.308;2022-09-12T18:34:20;6.63;;;4.97;;
52396;SDS011;38322;53.108;6.308;2022-09-12T18:36:47;5.90;;;5.40;;
52396;SDS011;38322;53.108;6.308;2022-09-12T18:39:15;6.45;;;5.47;;
52396;SDS011;38322;53.108;6.308;2022-09-12T18:41:41;6.47;;;4.55;;
52396;SDS011;38322;53.108;6.308;2022-09-12T18:44:08;8.07;;;5.70;;
52396;SDS011;38322;53.108;6.308;2022-09-12T18:46:36;10.63;;;5.40;;
52396;SDS011;38322;53.108;6.308;2022-09-12T18:49:02;6.10;;;5.28;;
52396;SDS011;38322;53.108;6.308;2022-09-12T18:51:30;6.40;;;5.68;;
52396;SDS011;38322;53.108;6.308;2022-09-12T18:53:59;7.57;;;5.80;;
52396;SDS011;38322;53.108;6.308;2022-09-12T18:56:28;9.90;;;6.97;;
52396;SDS011;38322;53.108;6.308;2022-09-12T18:58:57;10.88;;;5.95;;
52396;SDS011;38322;53.108;6.308;2022-09-12T19:01:25;8.00;;;7.13;;
52396;SDS011;38322;53.108;6.308;2022-09-12T19:03:52;8.27;;;7.45;;
52396;SDS011;38322;53.108;6.308;2022-09-12T19:06:21;10.00;;;7.80;;
52396;SDS011;38322;53.108;6.308;2022-09-12T19:08:49;9.80;;;8.68;;
52396;SDS011;38322;53.108;6.308;2022-09-12T19:11:16;8.57;;;7.07;;
52396;SDS011;38322;53.108;6.308;2022-09-12T19:13:45;7.30;;;6.60;;
52396;SDS011;38322;53.108;6.308;2022-09-12T19:16:13;8.18;;;6.95;;
52396;SDS011;38322;53.108;6.308;2022-09-12T19:18:41;10.20;;;8.10;;
52396;SDS011;38322;53.108;6.308;2022-09-12T19:21:11;8.18;;;5.93;;
52396;SDS011;38322;53.108;6.308;2022-09-12T19:23:39;9.05;;;7.35;;
52396;SDS011;38322;53.108;6.308;2022-09-12T19:26:06;8.68;;;7.78;;
52396;SDS011;38322;53.108;6.308;2022-09-12T19:28:33;12.93;;;9.38;;
52396;SDS011;38322;53.108;6.308;2022-09-12T19:31:02;12.73;;;10.55;;
52396;SDS011;38322;53.108;6.308;2022-09-12T19:33:31;10.40;;;9.10;;
52396;SDS011;38322;53.108;6.308;2022-09-12T19:36:00;11.55;;;8.52;;
52396;SDS011;38322;53.108;6.308;2022-09-12T19:38:28;11.68;;;10.55;;
52396;SDS011;38322;53.108;6.308;2022-09-12T19:40:56;12.23;;;10.00;;
52396;SDS011;38322;53.108;6.308;2022-09-12T19:43:23;8.82;;;7.88;;
52396;SDS011;38322;53.108;6.308;2022-09-12T19:45:50;9.00;;;7.10;;
52396;SDS011;38322;53.108;6.308;2022-09-12T19:48:16;8.85;;;7.60;;
52396;SDS011;38322;53.108;6.308;2022-09-12T19:50:43;13.00;;;8.35;;
52396;SDS011;38322;53.108;6.308;2022-09-12T19:53:09;12.07;;;8.18;;
52396;SDS011;38322;53.108;6.308;2022-09-12T19:55:35;15.63;;;10.27;;
52396;SDS011;38322;53.108;6.308;2022-09-12T19:58:01;12.63;;;11.15;;
52396;SDS011;38322;53.108;6.308;2022-09-12T20:00:27;16.27;;;10.07;;
